Datum - Zeit
Döttingen
TemperaturTaupunktFeuchteSolar Wind aus
Richtung
Windböenaus
Richtung
Luftdruck
(QFF)
RegenRegen
Stärke
19.11.2018 - 00.00Uhr0.4 °C-1.0 °C90 %0.0 W/m²0.0 km/hSüd-SO0.0 km/hNorden1017.2 hPa0.0 mm0.0 mm/h
19.11.2018 - 00.05Uhr0.3 °C-1.1 °C90 %0.0 W/m²0.1 km/hSüd-SO1.8 km/hSüd-SO1017.1 hPa0.0 mm0.0 mm/h
19.11.2018 - 00.10Uhr0.4 °C-1.0 °C90 %0.0 W/m²0.0 km/hSüd-SO0.0 km/hNorden1017.1 hPa0.0 mm0.0 mm/h
19.11.2018 - 00.15Uhr0.5 °C-0.9 °C90 %0.0 W/m²0.0 km/hSüd-SO0.0 km/hNorden1016.9 hPa0.0 mm0.0 mm/h
19.11.2018 - 00.20Uhr0.4 °C-1.0 °C90 %0.0 W/m²0.0 km/hSüd-SO0.0 km/hNorden1016.9 hPa0.0 mm0.0 mm/h
19.11.2018 - 00.25Uhr0.3 °C-1.1 °C90 %0.0 W/m²0.0 km/hSüd-SO0.0 km/hNorden1016.8 hPa0.0 mm0.0 mm/h
19.11.2018 - 00.30Uhr0.4 °C-1.0 °C90 %0.0 W/m²1.1 km/hSüd-SO4.0 km/hSüd-SO1016.7 hPa0.0 mm0.0 mm/h
19.11.2018 - 00.35Uhr0.4 °C-1.0 °C90 %0.0 W/m²1.0 km/hSüd-SO4.0 km/hSüd-SO1016.6 hPa0.0 mm0.0 mm/h
19.11.2018 - 00.40Uhr0.4 °C-1.0 °C91 %0.0 W/m²0.0 km/hSüd-SO0.0 km/hNorden1016.6 hPa0.0 mm0.0 mm/h
19.11.2018 - 00.45Uhr0.3 °C-1.0 °C91 %0.0 W/m²0.3 km/hSüd-SO1.8 km/hSüd-SO1016.4 hPa0.0 mm0.0 mm/h
19.11.2018 - 00.50Uhr0.2 °C-1.1 °C91 %0.0 W/m²0.0 km/hSüd-SO0.0 km/hNorden1016.4 hPa0.0 mm0.0 mm/h
19.11.2018 - 00.55Uhr0.1 °C-1.3 °C90 %0.0 W/m²1.7 km/hSüd-SO4.0 km/hSüd-SO1016.4 hPa0.0 mm0.0 mm/h
19.11.2018 - 01.00Uhr0.1 °C-1.3 °C90 %0.0 W/m²0.3 km/hSüd-SO1.8 km/hSüd-SO1016.4 hPa0.0 mm0.0 mm/h
19.11.2018 - 01.05Uhr0.3 °C-1.1 °C90 %0.0 W/m²0.0 km/hSüd-SO0.0 km/hNorden1016.3 hPa0.0 mm0.0 mm/h
19.11.2018 - 01.10Uhr0.2 °C-1.2 °C90 %0.0 W/m²0.0 km/hSüd-SO0.0 km/hNorden1016.3 hPa0.0 mm0.0 mm/h
19.11.2018 - 01.15Uhr0.1 °C-1.3 °C90 %0.0 W/m²0.0 km/hSüd-SO0.0 km/hNorden1016.1 hPa0.0 mm0.0 mm/h
19.11.2018 - 01.20Uhr0.1 °C-1.3 °C91 %0.0 W/m²0.2 km/hSüd-SO1.8 km/hSüd-SO1016.1 hPa0.0 mm0.0 mm/h
19.11.2018 - 01.25Uhr-0.0 °C-1.3 °C91 %0.0 W/m²0.6 km/hSüd-SO1.8 km/hSüd-SO1016.0 hPa0.0 mm0.0 mm/h
19.11.2018 - 01.30Uhr-0.1 °C-1.4 °C91 %0.0 W/m²2.2 km/hSüd-SO8.3 km/hSüd-SO1016.0 hPa0.0 mm0.0 mm/h
19.11.2018 - 01.35Uhr-0.1 °C-1.5 °C90 %0.0 W/m²0.5 km/hSüd-SO4.0 km/hSüd-SO1015.9 hPa0.0 mm0.0 mm/h
19.11.2018 - 01.40Uhr-0.1 °C-1.4 °C91 %0.0 W/m²0.0 km/hSüd-SO0.0 km/hNorden1015.8 hPa0.0 mm0.0 mm/h
19.11.2018 - 01.45Uhr-0.1 °C-1.4 °C91 %0.0 W/m²0.0 km/hSüd-SO0.0 km/hNorden1015.8 hPa0.0 mm0.0 mm/h
19.11.2018 - 01.50Uhr-0.1 °C-1.4 °C91 %0.0 W/m²0.0 km/hSüd-SO0.0 km/hNorden1015.8 hPa0.0 mm0.0 mm/h
19.11.2018 - 01.55Uhr-0.1 °C-1.4 °C91 %0.0 W/m²0.0 km/hSüd-SO0.0 km/hNorden1015.8 hPa0.0 mm0.0 mm/h
19.11.2018 - 02.00Uhr-0.1 °C-1.4 °C91 %0.0 W/m²0.0 km/hSüd-SO0.0 km/hNorden1015.6 hPa0.0 mm0.0 mm/h
19.11.2018 - 02.05Uhr-0.0 °C-1.4 °C91 %0.0 W/m²0.0 km/hSüd-SO0.0 km/hNorden1015.6 hPa0.0 mm0.0 mm/h
19.11.2018 - 02.10Uhr0.1 °C-1.2 °C91 %0.0 W/m²0.0 km/hSüd-SO0.0 km/hNorden1015.6 hPa0.0 mm0.0 mm/h
19.11.2018 - 02.15Uhr-0.2 °C-1.5 °C90 %0.0 W/m²1.1 km/hSüd-SO4.0 km/hSüd-SO1015.5 hPa0.0 mm0.0 mm/h
19.11.2018 - 02.20Uhr-0.1 °C-1.4 °C91 %0.0 W/m²3.0 km/hSüd-SO4.0 km/hSüd-SO1015.4 hPa0.0 mm0.0 mm/h
19.11.2018 - 02.25Uhr0.1 °C-1.2 °C91 %0.0 W/m²1.5 km/hSüd-SO4.0 km/hSüd-SO1015.3 hPa0.0 mm0.0 mm/h
19.11.2018 - 02.30Uhr0.2 °C-1.1 °C90 %0.0 W/m²1.4 km/hSüd-SO4.0 km/hSüd-SO1015.2 hPa0.0 mm0.0 mm/h
19.11.2018 - 02.35Uhr0.4 °C-0.9 °C90 %0.0 W/m²0.0 km/hSüd-SO0.0 km/hNorden1015.2 hPa0.0 mm0.0 mm/h
19.11.2018 - 02.40Uhr0.5 °C-0.9 °C90 %0.0 W/m²0.0 km/hSüd-SO0.0 km/hNorden1015.1 hPa0.0 mm0.0 mm/h
19.11.2018 - 02.45Uhr0.6 °C-0.9 °C90 %0.0 W/m²0.0 km/hSüd-SO0.0 km/hNorden1015.0 hPa0.0 mm0.0 mm/h
19.11.2018 - 02.50Uhr0.6 °C-0.9 °C90 %0.0 W/m²0.0 km/hSüd-SO0.0 km/hNorden1015.0 hPa0.0 mm0.0 mm/h
19.11.2018 - 02.55Uhr0.7 °C-0.8 °C90 %0.0 W/m²0.0 km/hSüd-SO0.0 km/hNorden1014.9 hPa0.0 mm0.0 mm/h
19.11.2018 - 03.00Uhr0.7 °C-0.8 °C90 %0.0 W/m²0.0 km/hSüd-SO0.0 km/hNorden1014.9 hPa0.0 mm0.0 mm/h
19.11.2018 - 03.05Uhr0.7 °C-0.8 °C90 %0.0 W/m²0.0 km/hSüd-SO0.0 km/hNorden1014.8 hPa0.0 mm0.0 mm/h
19.11.2018 - 03.10Uhr0.8 °C-0.7 °C90 %0.0 W/m²0.7 km/hSüd-SO4.0 km/hSüd-SO1014.7 hPa0.0 mm0.0 mm/h
19.11.2018 - 03.15Uhr0.9 °C-0.6 °C90 %0.0 W/m²0.8 km/hSüd-SO4.0 km/hSüd-SO1014.7 hPa0.0 mm0.0 mm/h
19.11.2018 - 03.20Uhr1.1 °C-0.4 °C90 %0.0 W/m²0.0 km/hSüd-SO0.0 km/hNorden1014.6 hPa0.0 mm0.0 mm/h
19.11.2018 - 03.25Uhr1.2 °C-0.3 °C90 %0.0 W/m²0.0 km/hSüd-SO0.0 km/hNorden1014.5 hPa0.0 mm0.0 mm/h
19.11.2018 - 03.30Uhr1.2 °C-0.3 °C90 %0.0 W/m²0.4 km/hSüd-SO1.8 km/hSüd-SO1014.4 hPa0.0 mm0.0 mm/h
19.11.2018 - 03.35Uhr1.1 °C-0.4 °C90 %0.0 W/m²0.1 km/hSüd-SO1.8 km/hSüd-SO1014.3 hPa0.0 mm0.0 mm/h
19.11.2018 - 03.40Uhr1.1 °C-0.4 °C90 %0.0 W/m²0.1 km/hSüd-SO1.8 km/hSüd-SO1014.2 hPa0.0 mm0.0 mm/h
19.11.2018 - 03.45Uhr1.2 °C-0.3 °C90 %0.0 W/m²0.0 km/hSüd-SO0.0 km/hNorden1014.2 hPa0.0 mm0.0 mm/h
19.11.2018 - 03.50Uhr1.3 °C-0.2 °C90 %0.0 W/m²0.3 km/hSüd-SO1.8 km/hSüd-SO1014.1 hPa0.0 mm0.0 mm/h
19.11.2018 - 03.55Uhr1.3 °C-0.2 °C90 %0.0 W/m²1.3 km/hSüd-SO4.0 km/hSüd-SO1014.0 hPa0.0 mm0.0 mm/h
19.11.2018 - 04.00Uhr1.4 °C-0.1 °C90 %0.0 W/m²0.1 km/hSüd-SO1.8 km/hSüd-SO1014.0 hPa0.0 mm0.0 mm/h
19.11.2018 - 04.05Uhr1.3 °C-0.2 °C90 %0.0 W/m²0.0 km/hSüd-SO0.0 km/hNorden1013.9 hPa0.0 mm0.0 mm/h
19.11.2018 - 04.10Uhr1.4 °C-0.1 °C90 %0.0 W/m²0.3 km/hSüd-SO4.0 km/hSüd-SO1013.8 hPa0.0 mm0.0 mm/h
19.11.2018 - 04.15Uhr1.6 °C0.1 °C90 %0.0 W/m²1.7 km/hSüd-SO8.3 km/hSüd-SO1013.7 hPa0.0 mm0.0 mm/h
19.11.2018 - 04.20Uhr1.8 °C0.3 °C90 %0.0 W/m²2.2 km/hSüd-SO8.3 km/hSüd-SO1013.7 hPa0.0 mm0.0 mm/h
19.11.2018 - 04.25Uhr1.9 °C0.4 °C90 %0.0 W/m²1.6 km/hSüd-SO8.3 km/hOsten1013.7 hPa0.0 mm0.0 mm/h
19.11.2018 - 04.30Uhr2.1 °C0.5 °C89 %0.0 W/m²2.9 km/hOsten8.3 km/hOst-NO1013.6 hPa0.0 mm0.0 mm/h
19.11.2018 - 04.35Uhr2.1 °C0.5 °C89 %0.0 W/m²4.1 km/hNordosten8.3 km/hNordosten1013.6 hPa0.0 mm0.0 mm/h
19.11.2018 - 04.40Uhr2.2 °C0.4 °C88 %0.0 W/m²3.1 km/hNordosten8.3 km/hNordosten1013.6 hPa0.0 mm0.0 mm/h
19.11.2018 - 04.45Uhr2.5 °C0.6 °C87 %0.0 W/m²5.0 km/hNord-NO14.0 km/hNord-NW1013.6 hPa0.0 mm0.0 mm/h
19.11.2018 - 04.50Uhr2.7 °C0.6 °C86 %0.0 W/m²4.2 km/hOsten8.3 km/hNordosten1013.6 hPa0.0 mm0.0 mm/h
19.11.2018 - 04.55Uhr2.9 °C0.5 °C85 %0.0 W/m²7.7 km/hOst-NO18.0 km/hNordosten1013.5 hPa0.0 mm0.0 mm/h
19.11.2018 - 05.00Uhr3.0 °C0.6 °C84 %0.0 W/m²4.9 km/hNordosten12.2 km/hOsten1013.5 hPa0.0 mm0.0 mm/h
19.11.2018 - 05.05Uhr3.0 °C0.6 °C84 %0.0 W/m²3.1 km/hNordosten8.3 km/hNordosten1013.5 hPa0.0 mm0.0 mm/h
19.11.2018 - 05.10Uhr2.9 °C0.5 °C84 %0.0 W/m²9.0 km/hOsten22.0 km/hOst-SO1013.4 hPa0.0 mm0.0 mm/h
19.11.2018 - 05.15Uhr3.0 °C0.6 °C84 %0.0 W/m²6.8 km/hNord-NO20.2 km/hOst-NO1013.3 hPa0.0 mm0.0 mm/h
19.11.2018 - 05.20Uhr2.9 °C0.5 °C84 %0.0 W/m²4.0 km/hOsten8.3 km/hOst-NO1013.3 hPa0.0 mm0.0 mm/h
19.11.2018 - 05.25Uhr2.9 °C0.5 °C84 %0.0 W/m²3.4 km/hOsten10.1 km/hOsten1013.2 hPa0.0 mm0.0 mm/h
19.11.2018 - 05.30Uhr2.9 °C0.5 °C84 %0.0 W/m²3.0 km/hOsten8.3 km/hOst-NO1013.1 hPa0.0 mm0.0 mm/h
19.11.2018 - 05.35Uhr2.9 °C0.5 °C84 %0.0 W/m²5.4 km/hOst-SO14.0 km/hNord-NO1013.1 hPa0.0 mm0.0 mm/h
19.11.2018 - 05.40Uhr2.9 °C0.5 °C84 %0.0 W/m²8.2 km/hOst-NO22.0 km/hSüdosten1013.0 hPa0.0 mm0.0 mm/h
19.11.2018 - 05.45Uhr2.9 °C0.5 °C84 %0.0 W/m²7.8 km/hSüdosten18.0 km/hSüdosten1012.9 hPa0.0 mm0.0 mm/h
19.11.2018 - 05.50Uhr2.9 °C0.5 °C84 %0.0 W/m²7.2 km/hOst-SO14.0 km/hOsten1012.9 hPa0.0 mm0.0 mm/h
19.11.2018 - 05.55Uhr2.9 °C0.5 °C84 %0.0 W/m²8.8 km/hOsten16.2 km/hOsten1012.8 hPa0.0 mm0.0 mm/h
19.11.2018 - 06.00Uhr3.0 °C0.6 °C84 %0.0 W/m²5.4 km/hNordosten12.2 km/hNord-NO1012.8 hPa0.0 mm0.0 mm/h
19.11.2018 - 06.05Uhr3.0 °C0.6 °C84 %0.0 W/m²6.5 km/hNordosten16.2 km/hOst-SO1012.7 hPa0.0 mm0.0 mm/h
19.11.2018 - 06.10Uhr3.0 °C0.6 °C84 %0.0 W/m²6.2 km/hOsten12.2 km/hOst-NO1012.6 hPa0.0 mm0.0 mm/h
19.11.2018 - 06.15Uhr3.0 °C0.6 °C84 %0.0 W/m²4.1 km/hOsten8.3 km/hOsten1012.6 hPa0.0 mm0.0 mm/h
19.11.2018 - 06.20Uhr3.0 °C0.6 °C84 %0.0 W/m²3.2 km/hOst-NO10.1 km/hNord-NO1012.6 hPa0.0 mm0.0 mm/h
19.11.2018 - 06.25Uhr3.0 °C0.6 °C84 %0.0 W/m²4.3 km/hOsten12.2 km/hSüden1012.5 hPa0.0 mm0.0 mm/h
19.11.2018 - 06.30Uhr3.0 °C0.6 °C84 %0.0 W/m²4.0 km/hOsten14.0 km/hOsten1012.4 hPa0.0 mm0.0 mm/h
19.11.2018 - 06.35Uhr3.0 °C0.6 °C84 %0.0 W/m²3.5 km/hNordosten8.3 km/hNordosten1012.3 hPa0.0 mm0.0 mm/h
19.11.2018 - 06.40Uhr3.0 °C0.6 °C84 %0.0 W/m²4.7 km/hOst-NO10.1 km/hNord-NO1012.2 hPa0.0 mm0.0 mm/h
19.11.2018 - 06.45Uhr3.0 °C0.6 °C84 %0.0 W/m²4.1 km/hNord-NO16.2 km/hNorden1012.2 hPa0.0 mm0.0 mm/h
19.11.2018 - 06.50Uhr3.1 °C0.5 °C83 %0.0 W/m²3.7 km/hOst-NO8.3 km/hNordosten1012.1 hPa0.0 mm0.0 mm/h
19.11.2018 - 06.55Uhr3.1 °C0.5 °C83 %0.0 W/m²0.8 km/hNordosten1.8 km/hNordosten1012.1 hPa0.0 mm0.0 mm/h
19.11.2018 - 07.00Uhr3.1 °C0.5 °C83 %0.0 W/m²1.2 km/hNordosten4.0 km/hNordosten1012.1 hPa0.0 mm0.0 mm/h
19.11.2018 - 07.05Uhr3.1 °C0.5 °C83 %0.0 W/m²4.2 km/hNordosten8.3 km/hOst-NO1012.0 hPa0.0 mm0.0 mm/h
19.11.2018 - 07.10Uhr3.1 °C0.5 °C83 %0.0 W/m²2.6 km/hOst-NO8.3 km/hOst-NO1012.0 hPa0.0 mm0.0 mm/h
19.11.2018 - 07.15Uhr3.0 °C0.4 °C83 %0.0 W/m²6.6 km/hNordosten16.2 km/hOsten1012.0 hPa0.0 mm0.0 mm/h
19.11.2018 - 07.20Uhr3.1 °C0.5 °C83 %0.0 W/m²7.9 km/hOst-NO20.2 km/hOsten1011.9 hPa0.0 mm0.0 mm/h
19.11.2018 - 07.25Uhr3.1 °C0.4 °C82 %0.0 W/m²8.7 km/hNordosten22.0 km/hNordosten1011.9 hPa0.0 mm0.0 mm/h
19.11.2018 - 07.30Uhr3.1 °C0.3 °C82 %0.0 W/m²7.5 km/hOsten12.2 km/hNorden1011.9 hPa0.0 mm0.0 mm/h
19.11.2018 - 07.35Uhr3.1 °C0.3 °C82 %0.0 W/m²6.5 km/hNord-NO16.2 km/hNordosten1011.9 hPa0.0 mm0.0 mm/h
19.11.2018 - 07.40Uhr3.1 °C0.3 °C82 %0.0 W/m²7.0 km/hNordosten14.0 km/hNordosten1011.9 hPa0.0 mm0.0 mm/h
19.11.2018 - 07.45Uhr3.0 °C0.3 °C82 %0.0 W/m²5.6 km/hOst-NO16.2 km/hNord-NO1011.9 hPa0.0 mm0.0 mm/h
19.11.2018 - 07.50Uhr2.9 °C0.3 °C83 %0.0 W/m²3.4 km/hOst-NO12.2 km/hOst-NO1011.8 hPa0.0 mm0.0 mm/h
19.11.2018 - 07.55Uhr3.0 °C0.3 °C83 %0.0 W/m²3.5 km/hOst-NO8.3 km/hNordosten1011.8 hPa0.0 mm0.0 mm/h
19.11.2018 - 08.00Uhr3.0 °C0.3 °C83 %0.0 W/m²7.1 km/hNordosten16.2 km/hNordosten1011.8 hPa0.0 mm0.0 mm/h
19.11.2018 - 08.05Uhr3.0 °C0.2 °C82 %0.0 W/m²5.0 km/hOst-NO14.0 km/hNordosten1011.8 hPa0.0 mm0.0 mm/h
19.11.2018 - 08.10Uhr2.9 °C0.3 °C83 %0.0 W/m²7.9 km/hNorden20.2 km/hNorden1011.8 hPa0.0 mm0.0 mm/h
19.11.2018 - 08.15Uhr2.8 °C0.2 °C83 %0.0 W/m²5.7 km/hOsten12.2 km/hOsten1011.8 hPa0.0 mm0.0 mm/h
19.11.2018 - 08.20Uhr2.7 °C0.2 °C83 %0.0 W/m²8.4 km/hNord-NO24.5 km/hOst-NO1011.7 hPa0.0 mm0.0 mm/h
19.11.2018 - 08.25Uhr2.8 °C0.2 °C83 %0.0 W/m²6.5 km/hNordosten16.2 km/hNordosten1011.6 hPa0.0 mm0.0 mm/h
19.11.2018 - 08.30Uhr2.7 °C0.1 °C83 %5.0 W/m²7.6 km/hOsten16.2 km/hOst-SO1011.5 hPa0.0 mm0.0 mm/h
19.11.2018 - 08.35Uhr2.7 °C0.2 °C83 %7.0 W/m²4.5 km/hNordosten10.1 km/hNord-NO1011.5 hPa0.0 mm0.0 mm/h
19.11.2018 - 08.40Uhr2.7 °C0.3 °C84 %7.0 W/m²4.8 km/hNordosten10.1 km/hOsten1011.4 hPa0.0 mm0.0 mm/h
19.11.2018 - 08.45Uhr2.7 °C0.2 °C84 %7.0 W/m²5.7 km/hNordosten12.2 km/hNordosten1011.3 hPa0.0 mm0.0 mm/h
19.11.2018 - 08.50Uhr2.6 °C0.2 °C84 %7.0 W/m²7.8 km/hOsten18.0 km/hSüdosten1011.3 hPa0.0 mm0.0 mm/h
19.11.2018 - 08.55Uhr2.6 °C0.2 °C84 %11.0 W/m²6.6 km/hOsten18.0 km/hNordosten1011.3 hPa0.0 mm0.0 mm/h
19.11.2018 - 09.00Uhr2.6 °C0.2 °C84 %21.0 W/m²7.0 km/hNordosten16.2 km/hNorden1011.2 hPa0.0 mm0.0 mm/h
19.11.2018 - 09.05Uhr2.6 °C0.2 °C84 %28.0 W/m²9.5 km/hNord-NO18.0 km/hOsten1011.1 hPa0.2 mm0.0 mm/h
19.11.2018 - 09.10Uhr2.6 °C0.2 °C84 %32.0 W/m²5.1 km/hNorden12.2 km/hNord-NO1011.0 hPa0.0 mm0.0 mm/h
19.11.2018 - 09.15Uhr2.6 °C0.2 °C84 %28.0 W/m²8.8 km/hNord-NO18.0 km/hNord-NO1010.9 hPa0.0 mm0.0 mm/h
19.11.2018 - 09.20Uhr2.6 °C0.0 °C83 %33.0 W/m²7.1 km/hNordosten18.0 km/hNord-NO1010.8 hPa0.0 mm0.0 mm/h
19.11.2018 - 09.25Uhr2.7 °C0.3 °C84 %54.0 W/m²4.4 km/hNordosten12.2 km/hNord-NW1010.8 hPa0.0 mm0.0 mm/h
19.11.2018 - 09.30Uhr2.7 °C0.3 °C84 %54.0 W/m²8.2 km/hNorden18.0 km/hNordosten1010.8 hPa0.0 mm0.0 mm/h
19.11.2018 - 09.35Uhr2.8 °C0.3 °C83 %60.0 W/m²9.0 km/hNord-NO16.2 km/hNordosten1010.7 hPa0.0 mm0.0 mm/h
19.11.2018 - 09.40Uhr2.8 °C0.2 °C83 %77.0 W/m²9.9 km/hNord-NO24.5 km/hSüdosten1010.7 hPa0.0 mm0.0 mm/h
19.11.2018 - 09.45Uhr2.8 °C0.2 °C83 %69.0 W/m²5.9 km/hNordosten16.2 km/hSüden1010.6 hPa0.0 mm0.0 mm/h
19.11.2018 - 09.50Uhr2.8 °C0.2 °C83 %77.0 W/m²7.6 km/hOst-NO24.5 km/hSüdosten1010.6 hPa0.0 mm0.0 mm/h
19.11.2018 - 09.55Uhr2.7 °C0.1 °C83 %109.0 W/m²10.2 km/hNordosten20.2 km/hNorden1010.5 hPa0.0 mm0.0 mm/h
19.11.2018 - 10.00Uhr2.7 °C0.1 °C83 %116.0 W/m²6.3 km/hOst-NO12.2 km/hOst-NO1010.6 hPa0.0 mm0.0 mm/h
19.11.2018 - 10.05Uhr2.7 °C0.3 °C84 %98.0 W/m²8.0 km/hNordosten22.0 km/hOst-SO1010.5 hPa0.0 mm0.0 mm/h
19.11.2018 - 10.10Uhr2.6 °C0.1 °C83 %98.0 W/m²6.5 km/hNord-NO18.0 km/hNord-NO1010.5 hPa0.0 mm0.0 mm/h
19.11.2018 - 10.15Uhr2.6 °C0.1 °C83 %120.0 W/m²4.9 km/hOst-NO12.2 km/hOst-NO1010.5 hPa0.0 mm0.0 mm/h
19.11.2018 - 10.20Uhr2.7 °C-0.0 °C82 %118.0 W/m²4.0 km/hOsten12.2 km/hOsten1010.5 hPa0.0 mm0.0 mm/h
19.11.2018 - 10.25Uhr2.8 °C0.0 °C82 %146.0 W/m²3.7 km/hOsten12.2 km/hNord-NO1010.5 hPa0.0 mm0.0 mm/h
19.11.2018 - 10.30Uhr2.8 °C-0.2 °C80 %162.0 W/m²8.0 km/hOsten14.0 km/hNordosten1010.4 hPa0.0 mm0.0 mm/h
19.11.2018 - 10.35Uhr2.9 °C-0.2 °C80 %165.0 W/m²8.6 km/hOst-NO26.3 km/hOsten1010.2 hPa0.0 mm0.0 mm/h
19.11.2018 - 10.40Uhr3.0 °C-0.0 °C80 %156.0 W/m²7.4 km/hNord-NW16.2 km/hNord-NO1010.0 hPa0.0 mm0.0 mm/h
19.11.2018 - 10.45Uhr3.1 °C0.1 °C80 %113.0 W/m²4.9 km/hNord-NO16.2 km/hOst-SO1010.0 hPa0.0 mm0.0 mm/h
19.11.2018 - 10.50Uhr3.1 °C-0.1 °C80 %74.0 W/m²5.8 km/hOsten16.2 km/hNordosten1010.0 hPa0.0 mm0.0 mm/h
19.11.2018 - 10.55Uhr2.9 °C-0.4 °C79 %109.0 W/m²6.8 km/hOst-NO16.2 km/hSüdosten1010.1 hPa0.0 mm0.0 mm/h
19.11.2018 - 11.00Uhr3.0 °C-0.3 °C79 %116.0 W/m²4.6 km/hOst-NO16.2 km/hOst-SO1010.0 hPa0.0 mm0.0 mm/h
19.11.2018 - 11.05Uhr3.0 °C-0.2 °C79 %83.0 W/m²3.0 km/hOst-NO8.3 km/hOst-NO1010.0 hPa0.0 mm0.0 mm/h
19.11.2018 - 11.10Uhr2.9 °C0.0 °C81 %77.0 W/m²6.5 km/hOst-NO26.3 km/hOsten1009.9 hPa0.0 mm0.0 mm/h
19.11.2018 - 11.15Uhr2.8 °C-0.4 °C79 %98.0 W/m²8.7 km/hNord-NO24.5 km/hNord-NO1009.8 hPa0.0 mm0.0 mm/h
19.11.2018 - 11.20Uhr2.8 °C-0.2 °C80 %91.0 W/m²3.2 km/hNordosten8.3 km/hNordosten1009.8 hPa0.0 mm0.0 mm/h
19.11.2018 - 11.25Uhr2.8 °C-0.4 °C80 %88.0 W/m²5.3 km/hOsten14.0 km/hOsten1009.6 hPa0.0 mm0.0 mm/h
19.11.2018 - 11.30Uhr2.9 °C-0.4 °C79 %81.0 W/m²5.7 km/hNorden12.2 km/hNorden1009.5 hPa0.0 mm0.0 mm/h
19.11.2018 - 11.35Uhr2.9 °C-0.6 °C78 %69.0 W/m²5.1 km/hNordosten18.0 km/hNord-NO1009.5 hPa0.0 mm0.0 mm/h
19.11.2018 - 11.40Uhr2.9 °C-1.1 °C75 %51.0 W/m²7.6 km/hOst-NO24.5 km/hOsten1009.4 hPa0.0 mm0.0 mm/h
19.11.2018 - 11.45Uhr2.8 °C-1.3 °C75 %40.0 W/m²8.2 km/hOst-SO22.0 km/hOst-NO1009.3 hPa0.0 mm0.0 mm/h
19.11.2018 - 11.50Uhr2.8 °C-1.3 °C74 %37.0 W/m²8.8 km/hOsten22.0 km/hOsten1009.2 hPa0.0 mm0.0 mm/h
19.11.2018 - 11.55Uhr2.7 °C-1.4 °C74 %51.0 W/m²5.3 km/hNordosten22.0 km/hOsten1009.2 hPa0.0 mm0.0 mm/h
19.11.2018 - 12.00Uhr2.7 °C-1.4 °C74 %58.0 W/m²8.0 km/hNord-NO16.2 km/hNord-NO1009.1 hPa0.0 mm0.0 mm/h
19.11.2018 - 12.05Uhr2.7 °C-1.5 °C74 %51.0 W/m²4.0 km/hNordosten16.2 km/hNorden1009.1 hPa0.0 mm0.0 mm/h
19.11.2018 - 12.10Uhr2.7 °C-1.3 °C75 %72.0 W/m²3.3 km/hNordosten10.1 km/hNordwesten1009.1 hPa0.0 mm0.0 mm/h
19.11.2018 - 12.15Uhr2.7 °C-1.5 °C74 %77.0 W/m²9.2 km/hOsten24.5 km/hOst-NO1009.0 hPa0.0 mm0.0 mm/h
19.11.2018 - 12.20Uhr2.6 °C-1.5 °C74 %67.0 W/m²9.1 km/hOsten24.5 km/hSüd-SO1009.0 hPa0.0 mm0.0 mm/h
19.11.2018 - 12.25Uhr2.6 °C-1.7 °C74 %56.0 W/m²9.9 km/hOsten22.0 km/hOst-SO1008.9 hPa0.0 mm0.0 mm/h
19.11.2018 - 12.30Uhr2.5 °C-1.6 °C74 %46.0 W/m²9.7 km/hOst-SO22.0 km/hOst-SO1008.8 hPa0.0 mm0.0 mm/h
19.11.2018 - 12.35Uhr2.5 °C-1.6 °C75 %42.0 W/m²7.7 km/hOsten18.0 km/hOst-NO1008.8 hPa0.0 mm0.0 mm/h
19.11.2018 - 12.40Uhr2.5 °C-1.6 °C74 %44.0 W/m²8.4 km/hOst-NO24.5 km/hSüdosten1008.7 hPa0.0 mm0.0 mm/h
19.11.2018 - 12.45Uhr2.5 °C-1.8 °C74 %49.0 W/m²6.7 km/hOsten22.0 km/hOst-NO1008.7 hPa0.0 mm0.0 mm/h
19.11.2018 - 12.50Uhr2.4 °C-1.9 °C73 %51.0 W/m²8.6 km/hNordosten28.4 km/hNordosten1008.6 hPa0.0 mm0.0 mm/h
19.11.2018 - 12.55Uhr2.4 °C-1.9 °C73 %58.0 W/m²9.6 km/hOsten30.2 km/hOst-SO1008.6 hPa0.0 mm0.0 mm/h
19.11.2018 - 13.00Uhr2.4 °C-1.9 °C73 %74.0 W/m²11.2 km/hOsten22.0 km/hOst-SO1008.5 hPa0.0 mm0.0 mm/h
19.11.2018 - 13.05Uhr2.4 °C-1.9 °C73 %98.0 W/m²8.2 km/hNordosten18.0 km/hNord-NO1008.5 hPa0.0 mm0.0 mm/h
19.11.2018 - 13.10Uhr2.4 °C-1.8 °C74 %100.0 W/m²10.7 km/hOsten22.0 km/hNordosten1008.5 hPa0.0 mm0.0 mm/h
19.11.2018 - 13.15Uhr2.3 °C-1.7 °C75 %97.0 W/m²7.0 km/hOsten20.2 km/hNordosten1008.5 hPa0.0 mm0.0 mm/h
19.11.2018 - 13.20Uhr2.3 °C-1.8 °C75 %95.0 W/m²7.3 km/hNord-NO24.5 km/hOsten1008.5 hPa0.0 mm0.0 mm/h
19.11.2018 - 13.25Uhr2.2 °C-1.5 °C76 %72.0 W/m²7.9 km/hNord-NO22.0 km/hOst-SO1008.5 hPa0.0 mm0.0 mm/h
19.11.2018 - 13.30Uhr2.1 °C-1.4 °C78 %60.0 W/m²8.7 km/hOsten32.4 km/hNordosten1008.5 hPa0.0 mm0.0 mm/h
19.11.2018 - 13.35Uhr1.9 °C-1.2 °C80 %56.0 W/m²8.2 km/hOsten22.0 km/hOst-SO1008.6 hPa0.0 mm0.0 mm/h
19.11.2018 - 13.40Uhr1.8 °C-1.1 °C81 %53.0 W/m²9.3 km/hNordosten28.4 km/hOst-SO1008.5 hPa0.0 mm0.0 mm/h
19.11.2018 - 13.45Uhr1.7 °C-1.1 °C82 %44.0 W/m²8.4 km/hOsten18.0 km/hNord-NO1008.5 hPa0.0 mm0.0 mm/h
19.11.2018 - 13.50Uhr1.5 °C-1.1 °C82 %51.0 W/m²10.0 km/hNordosten22.0 km/hNord-NO1008.4 hPa0.0 mm0.0 mm/h
19.11.2018 - 13.55Uhr1.4 °C-1.1 °C83 %51.0 W/m²7.2 km/hOsten18.0 km/hNordosten1008.4 hPa0.0 mm0.0 mm/h
19.11.2018 - 14.00Uhr1.4 °C-1.1 °C84 %54.0 W/m²6.3 km/hOst-NO16.2 km/hOst-SO1008.2 hPa0.0 mm0.0 mm/h
19.11.2018 - 14.05Uhr1.4 °C-0.9 °C85 %67.0 W/m²5.0 km/hOsten12.2 km/hNord-NO1008.1 hPa0.0 mm0.0 mm/h
19.11.2018 - 14.10Uhr1.4 °C-0.8 °C85 %76.0 W/m²6.2 km/hNordosten20.2 km/hNord-NO1008.0 hPa0.0 mm0.0 mm/h
19.11.2018 - 14.15Uhr1.4 °C-0.7 °C86 %76.0 W/m²4.6 km/hNord-NO12.2 km/hNordosten1008.0 hPa0.0 mm0.0 mm/h
19.11.2018 - 14.20Uhr1.4 °C-0.5 °C88 %77.0 W/m²7.5 km/hNordosten26.3 km/hNordwesten1008.0 hPa0.0 mm0.0 mm/h
19.11.2018 - 14.25Uhr1.3 °C-0.7 °C86 %77.0 W/m²6.0 km/hNordosten18.0 km/hSüdosten1008.0 hPa0.0 mm0.0 mm/h
19.11.2018 - 14.30Uhr1.3 °C-0.6 °C87 %72.0 W/m²9.3 km/hOst-SO16.2 km/hNord-NO1008.0 hPa0.0 mm0.0 mm/h
19.11.2018 - 14.35Uhr1.2 °C-0.7 °C88 %63.0 W/m²5.1 km/hOst-NO14.0 km/hNordosten1007.9 hPa0.0 mm0.0 mm/h
19.11.2018 - 14.40Uhr1.1 °C-0.7 °C88 %47.0 W/m²6.2 km/hNord-NO16.2 km/hNordosten1007.9 hPa0.0 mm0.0 mm/h
19.11.2018 - 14.45Uhr1.1 °C-0.7 °C88 %47.0 W/m²6.8 km/hNordosten14.0 km/hNord-NO1007.8 hPa0.0 mm0.0 mm/h
19.11.2018 - 14.50Uhr1.1 °C-0.6 °C89 %44.0 W/m²5.9 km/hNordosten18.0 km/hNordosten1007.8 hPa0.0 mm0.0 mm/h
19.11.2018 - 14.55Uhr0.9 °C-0.7 °C89 %42.0 W/m²9.1 km/hNordosten26.3 km/hNordosten1007.8 hPa0.0 mm0.0 mm/h
19.11.2018 - 15.00Uhr0.9 °C-0.7 °C89 %44.0 W/m²6.2 km/hNordosten16.2 km/hNord-NO1007.7 hPa0.0 mm0.0 mm/h
19.11.2018 - 15.05Uhr0.9 °C-0.7 °C89 %44.0 W/m²4.6 km/hNordosten12.2 km/hOst-NO1007.6 hPa0.0 mm0.0 mm/h
19.11.2018 - 15.10Uhr0.9 °C-0.6 °C89 %39.0 W/m²5.2 km/hNordosten14.0 km/hNord-NO1007.6 hPa0.0 mm0.0 mm/h
19.11.2018 - 15.15Uhr1.0 °C-0.6 °C89 %30.0 W/m²2.1 km/hNordosten8.3 km/hNordosten1007.5 hPa0.0 mm0.0 mm/h
19.11.2018 - 15.20Uhr1.1 °C-0.5 °C89 %28.0 W/m²6.4 km/hNordosten14.0 km/hNord-NO1007.5 hPa0.0 mm0.0 mm/h
19.11.2018 - 15.25Uhr1.2 °C-0.6 °C88 %26.0 W/m²7.9 km/hNordosten16.2 km/hNorden1007.5 hPa0.0 mm0.0 mm/h
19.11.2018 - 15.30Uhr1.3 °C-0.5 °C88 %21.0 W/m²7.2 km/hNordosten16.2 km/hNord-NO1007.5 hPa0.0 mm0.0 mm/h
19.11.2018 - 15.35Uhr1.3 °C-0.5 °C88 %18.0 W/m²3.3 km/hOst-NO12.2 km/hNordosten1007.5 hPa0.0 mm0.0 mm/h
19.11.2018 - 15.40Uhr1.4 °C-0.4 °C88 %12.0 W/m²3.0 km/hNorden10.1 km/hNord-NW1007.5 hPa0.0 mm0.0 mm/h
19.11.2018 - 15.45Uhr1.4 °C-0.5 °C87 %9.0 W/m²6.2 km/hNordosten12.2 km/hNord-NO1007.5 hPa0.0 mm0.0 mm/h
19.11.2018 - 15.50Uhr1.4 °C-0.4 °C88 %7.0 W/m²5.7 km/hNordosten12.2 km/hNordosten1007.5 hPa0.0 mm0.0 mm/h
19.11.2018 - 15.55Uhr1.5 °C-0.6 °C86 %7.0 W/m²8.1 km/hNord-NO22.0 km/hOsten1007.5 hPa0.0 mm0.0 mm/h
19.11.2018 - 16.00Uhr1.6 °C-0.6 °C85 %5.0 W/m²7.8 km/hNordosten20.2 km/hNord-NO1007.5 hPa0.0 mm0.0 mm/h
19.11.2018 - 16.05Uhr1.6 °C-0.6 °C85 %5.0 W/m²4.8 km/hOsten16.2 km/hOsten1007.4 hPa0.0 mm0.0 mm/h
19.11.2018 - 16.10Uhr1.6 °C-0.6 °C85 %5.0 W/m²5.7 km/hNordosten16.2 km/hNordosten1007.4 hPa0.0 mm0.0 mm/h
19.11.2018 - 16.15Uhr1.7 °C-0.6 °C85 %7.0 W/m²6.4 km/hNord-NO12.2 km/hNordosten1007.4 hPa0.0 mm0.0 mm/h
19.11.2018 - 16.20Uhr1.7 °C-0.7 °C84 %7.0 W/m²5.4 km/hNordosten16.2 km/hNordosten1007.4 hPa0.0 mm0.0 mm/h
19.11.2018 - 16.25Uhr1.7 °C-0.7 °C84 %5.0 W/m²1.9 km/hNordosten8.3 km/hNordosten1007.4 hPa0.2 mm0.0 mm/h
19.11.2018 - 16.30Uhr1.7 °C-0.7 °C84 %5.0 W/m²4.1 km/hNordosten12.2 km/hNord-NO1007.4 hPa0.0 mm0.0 mm/h
19.11.2018 - 16.35Uhr1.7 °C-0.7 °C84 %0.0 W/m²6.4 km/hNordosten24.5 km/hNordosten1007.4 hPa0.0 mm0.0 mm/h
19.11.2018 - 16.40Uhr1.7 °C-0.7 °C84 %0.0 W/m²3.2 km/hNordosten8.3 km/hNordosten1007.3 hPa0.0 mm0.0 mm/h
19.11.2018 - 16.45Uhr1.7 °C-0.7 °C84 %0.0 W/m²4.9 km/hNordosten14.0 km/hNord-NO1007.3 hPa0.0 mm0.0 mm/h
19.11.2018 - 16.50Uhr1.8 °C-0.7 °C84 %0.0 W/m²5.2 km/hNord-NO14.0 km/hNorden1007.2 hPa0.0 mm0.0 mm/h
19.11.2018 - 16.55Uhr1.8 °C-0.8 °C83 %0.0 W/m²8.1 km/hNordosten22.0 km/hNordosten1007.2 hPa0.0 mm0.0 mm/h
19.11.2018 - 17.00Uhr1.8 °C-0.8 °C82 %0.0 W/m²6.3 km/hOst-NO20.2 km/hNordosten1007.2 hPa0.0 mm0.0 mm/h
19.11.2018 - 17.05Uhr1.8 °C-0.8 °C83 %0.0 W/m²5.8 km/hNordosten16.2 km/hNordosten1007.1 hPa0.0 mm0.0 mm/h
19.11.2018 - 17.10Uhr1.8 °C-0.8 °C83 %0.0 W/m²6.3 km/hOst-NO12.2 km/hNordosten1007.1 hPa0.0 mm0.0 mm/h
19.11.2018 - 17.15Uhr1.8 °C-0.8 °C82 %0.0 W/m²8.1 km/hNord-NO18.0 km/hNordosten1007.1 hPa0.0 mm0.0 mm/h
19.11.2018 - 17.20Uhr1.8 °C-0.8 °C83 %0.0 W/m²8.7 km/hNordosten24.5 km/hOsten1007.1 hPa0.0 mm0.0 mm/h
19.11.2018 - 17.25Uhr1.8 °C-0.9 °C82 %0.0 W/m²7.3 km/hNordosten18.0 km/hNordosten1007.1 hPa0.0 mm0.0 mm/h
19.11.2018 - 17.30Uhr1.8 °C-0.9 °C82 %0.0 W/m²6.1 km/hOst-NO16.2 km/hOst-NO1007.1 hPa0.0 mm0.0 mm/h
19.11.2018 - 17.35Uhr1.8 °C-0.9 °C82 %0.0 W/m²4.6 km/hNordosten14.0 km/hOst-SO1007.2 hPa0.0 mm0.0 mm/h
19.11.2018 - 17.40Uhr1.8 °C-0.9 °C82 %0.0 W/m²7.2 km/hOst-NO18.0 km/hNorden1007.2 hPa0.0 mm0.0 mm/h
19.11.2018 - 17.45Uhr1.8 °C-0.9 °C82 %0.0 W/m²7.7 km/hNordosten16.2 km/hOsten1007.2 hPa0.0 mm0.0 mm/h
19.11.2018 - 17.50Uhr1.8 °C-0.9 °C82 %0.0 W/m²7.7 km/hNordosten22.0 km/hOst-SO1007.2 hPa0.0 mm0.0 mm/h
19.11.2018 - 17.55Uhr1.8 °C-0.9 °C82 %0.0 W/m²6.7 km/hOst-NO12.2 km/hNord-NO1007.2 hPa0.0 mm0.0 mm/h
19.11.2018 - 18.00Uhr1.7 °C-1.0 °C82 %0.0 W/m²6.6 km/hOsten16.2 km/hOsten1007.2 hPa0.0 mm0.0 mm/h
19.11.2018 - 18.05Uhr1.7 °C-1.0 °C82 %0.0 W/m²4.5 km/hOst-NO8.3 km/hNordosten1007.3 hPa0.0 mm0.0 mm/h
19.11.2018 - 18.10Uhr1.7 °C-1.0 °C82 %0.0 W/m²7.8 km/hNordosten16.2 km/hNord-NO1007.3 hPa0.0 mm0.0 mm/h
19.11.2018 - 18.15Uhr1.8 °C-1.1 °C82 %0.0 W/m²6.6 km/hOst-NO12.2 km/hOst-NO1007.3 hPa0.0 mm0.0 mm/h
19.11.2018 - 18.20Uhr1.8 °C-1.1 °C81 %0.0 W/m²7.2 km/hNord-NO20.2 km/hOst-NO1007.3 hPa0.0 mm0.0 mm/h
19.11.2018 - 18.25Uhr1.7 °C-1.1 °C82 %0.0 W/m²4.3 km/hOst-NO12.2 km/hNord-NO1007.2 hPa0.0 mm0.0 mm/h
19.11.2018 - 18.30Uhr1.7 °C-1.1 °C82 %0.0 W/m²6.0 km/hNord-NO16.2 km/hNordosten1007.2 hPa0.0 mm0.0 mm/h
19.11.2018 - 18.35Uhr1.7 °C-1.0 °C82 %0.0 W/m²5.3 km/hOst-NO12.2 km/hOsten1007.2 hPa0.0 mm0.0 mm/h
19.11.2018 - 18.40Uhr1.7 °C-1.1 °C82 %0.0 W/m²4.4 km/hOst-NO14.0 km/hOst-NO1007.2 hPa0.0 mm0.0 mm/h
19.11.2018 - 18.45Uhr1.7 °C-1.0 °C82 %0.0 W/m²3.2 km/hOst-NO10.1 km/hOst-NO1007.2 hPa0.0 mm0.0 mm/h
19.11.2018 - 18.50Uhr1.7 °C-0.9 °C82 %0.0 W/m²5.3 km/hNord-NO18.0 km/hNordosten1007.2 hPa0.0 mm0.0 mm/h
19.11.2018 - 18.55Uhr1.7 °C-1.0 °C82 %0.0 W/m²4.6 km/hNordosten8.3 km/hNord-NO1007.2 hPa0.0 mm0.0 mm/h
19.11.2018 - 19.00Uhr1.7 °C-1.0 °C82 %0.0 W/m²7.4 km/hNord-NO18.0 km/hOst-NO1007.1 hPa0.0 mm0.0 mm/h
19.11.2018 - 19.05Uhr1.7 °C-1.0 °C82 %0.0 W/m²5.0 km/hOst-NO16.2 km/hOsten1007.1 hPa0.0 mm0.0 mm/h
19.11.2018 - 19.10Uhr1.6 °C-1.1 °C82 %0.0 W/m²6.6 km/hNord-NO12.2 km/hSüd-SO1007.1 hPa0.0 mm0.0 mm/h
19.11.2018 - 19.15Uhr1.7 °C-1.0 °C82 %0.0 W/m²3.7 km/hOsten12.2 km/hOsten1007.1 hPa0.0 mm0.0 mm/h
19.11.2018 - 19.20Uhr1.7 °C-1.0 °C82 %0.0 W/m²5.4 km/hNordosten12.2 km/hNordosten1007.1 hPa0.0 mm0.0 mm/h
19.11.2018 - 19.25Uhr1.7 °C-1.0 °C82 %0.0 W/m²5.0 km/hNordosten16.2 km/hNord-NO1007.1 hPa0.0 mm0.0 mm/h
19.11.2018 - 19.30Uhr1.7 °C-1.0 °C82 %0.0 W/m²6.8 km/hNordosten16.2 km/hNordosten1007.0 hPa0.0 mm0.0 mm/h
19.11.2018 - 19.35Uhr1.7 °C-1.0 °C82 %0.0 W/m²3.2 km/hOsten8.3 km/hOsten1007.0 hPa0.0 mm0.0 mm/h
19.11.2018 - 19.40Uhr1.6 °C-1.0 °C83 %0.0 W/m²2.6 km/hNord-NO12.2 km/hNord-NO1007.0 hPa0.0 mm0.0 mm/h
19.11.2018 - 19.45Uhr1.6 °C-1.0 °C83 %0.0 W/m²4.8 km/hNord-NO14.0 km/hNord-NO1007.0 hPa0.0 mm0.0 mm/h
19.11.2018 - 19.50Uhr1.6 °C-1.0 °C83 %0.0 W/m²5.7 km/hNorden24.5 km/hNordosten1006.9 hPa0.0 mm0.0 mm/h
19.11.2018 - 19.55Uhr1.7 °C-1.0 °C83 %0.0 W/m²5.5 km/hNordosten16.2 km/hNord-NO1006.9 hPa0.0 mm0.0 mm/h
19.11.2018 - 20.00Uhr1.7 °C-1.0 °C82 %0.0 W/m²7.0 km/hOst-NO22.0 km/hNordosten1006.9 hPa0.0 mm0.0 mm/h
19.11.2018 - 20.05Uhr1.7 °C-1.0 °C82 %0.0 W/m²6.4 km/hOst-NO10.1 km/hNord-NO1006.9 hPa0.0 mm0.0 mm/h
19.11.2018 - 20.10Uhr1.7 °C-1.0 °C82 %0.0 W/m²4.5 km/hNordosten16.2 km/hOst-SO1006.9 hPa0.0 mm0.0 mm/h
19.11.2018 - 20.15Uhr1.6 °C-1.1 °C82 %0.0 W/m²2.4 km/hNordosten8.3 km/hNordosten1007.0 hPa0.0 mm0.0 mm/h
19.11.2018 - 20.20Uhr1.6 °C-1.0 °C83 %0.0 W/m²1.6 km/hNordosten4.0 km/hNordosten1006.9 hPa0.0 mm0.0 mm/h
19.11.2018 - 20.25Uhr1.6 °C-1.1 °C82 %0.0 W/m²4.2 km/hNordosten10.1 km/hNord-NO1006.9 hPa0.0 mm0.0 mm/h
19.11.2018 - 20.30Uhr1.6 °C-1.0 °C83 %0.0 W/m²2.7 km/hOsten12.2 km/hOsten1006.8 hPa0.0 mm0.0 mm/h
19.11.2018 - 20.35Uhr1.6 °C-1.0 °C82 %0.0 W/m²1.0 km/hOsten5.8 km/hOsten1006.9 hPa0.0 mm0.0 mm/h
19.11.2018 - 20.40Uhr1.7 °C-0.9 °C83 %0.0 W/m²4.6 km/hOsten14.0 km/hOsten1006.9 hPa0.0 mm0.0 mm/h
19.11.2018 - 20.45Uhr1.7 °C-1.0 °C82 %0.0 W/m²4.1 km/hOst-SO12.2 km/hOsten1006.9 hPa0.0 mm0.0 mm/h
19.11.2018 - 20.50Uhr1.7 °C-0.9 °C83 %0.0 W/m²1.1 km/hOst-SO4.0 km/hOst-SO1006.8 hPa0.0 mm0.0 mm/h
19.11.2018 - 20.55Uhr1.7 °C-1.0 °C82 %0.0 W/m²2.7 km/hOst-NO8.3 km/hOst-NO1006.9 hPa0.0 mm0.0 mm/h
19.11.2018 - 21.00Uhr1.7 °C-1.0 °C82 %0.0 W/m²2.1 km/hOst-NO5.8 km/hOst-NO1006.8 hPa0.0 mm0.0 mm/h
19.11.2018 - 21.05Uhr1.7 °C-1.0 °C82 %0.0 W/m²4.2 km/hNord-NO10.1 km/hNordosten1006.8 hPa0.0 mm0.0 mm/h
19.11.2018 - 21.10Uhr1.7 °C-1.0 °C82 %0.0 W/m²4.3 km/hOst-NO16.2 km/hOsten1006.7 hPa0.0 mm0.0 mm/h
19.11.2018 - 21.15Uhr1.7 °C-1.0 °C82 %0.0 W/m²4.1 km/hOst-NO12.2 km/hOst-NO1006.7 hPa0.0 mm0.0 mm/h
19.11.2018 - 21.20Uhr1.7 °C-1.0 °C82 %0.0 W/m²5.7 km/hOst-NO12.2 km/hNord-NO1006.8 hPa0.0 mm0.0 mm/h
19.11.2018 - 21.25Uhr1.7 °C-1.0 °C82 %0.0 W/m²5.9 km/hOst-NO16.2 km/hNord-NO1006.8 hPa0.0 mm0.0 mm/h
19.11.2018 - 21.30Uhr1.7 °C-1.0 °C82 %0.0 W/m²5.1 km/hNorden12.2 km/hNord-NO1006.8 hPa0.0 mm0.0 mm/h
19.11.2018 - 21.35Uhr1.7 °C-1.0 °C82 %0.0 W/m²3.4 km/hOst-NO8.3 km/hNord-NO1006.8 hPa0.0 mm0.0 mm/h
19.11.2018 - 21.40Uhr1.6 °C-1.1 °C82 %0.0 W/m²4.2 km/hNord-NO12.2 km/hNord-NO1006.8 hPa0.0 mm0.0 mm/h
19.11.2018 - 21.45Uhr1.7 °C-1.0 °C82 %0.0 W/m²6.0 km/hNord-NO14.0 km/hOst-NO1006.7 hPa0.0 mm0.0 mm/h
19.11.2018 - 21.50Uhr1.7 °C-1.0 °C82 %0.0 W/m²3.8 km/hOst-SO12.2 km/hNord-NW1006.7 hPa0.0 mm0.0 mm/h
19.11.2018 - 21.55Uhr1.7 °C-1.0 °C82 %0.0 W/m²2.6 km/hNord-NO8.3 km/hNorden1006.6 hPa0.0 mm0.0 mm/h
19.11.2018 - 22.00Uhr1.7 °C-1.0 °C82 %0.0 W/m²6.7 km/hNordosten16.2 km/hNordosten1006.6 hPa0.0 mm0.0 mm/h
19.11.2018 - 22.05Uhr1.7 °C-1.0 °C82 %0.0 W/m²3.4 km/hNord-NO8.3 km/hNorden1006.6 hPa0.0 mm0.0 mm/h
19.11.2018 - 22.10Uhr1.7 °C-0.9 °C82 %0.0 W/m²4.5 km/hNord-NO18.0 km/hNord-NW1006.5 hPa0.0 mm0.0 mm/h
19.11.2018 - 22.15Uhr1.7 °C-0.9 °C82 %0.0 W/m²2.3 km/hOsten8.3 km/hOsten1006.5 hPa0.0 mm0.0 mm/h
19.11.2018 - 22.20Uhr1.7 °C-1.0 °C82 %0.0 W/m²6.0 km/hOst-NO14.0 km/hOst-NO1006.5 hPa0.0 mm0.0 mm/h
19.11.2018 - 22.25Uhr1.7 °C-1.0 °C82 %0.0 W/m²11.0 km/hNord-NO20.2 km/hOsten1006.5 hPa0.0 mm0.0 mm/h
19.11.2018 - 22.30Uhr1.7 °C-1.0 °C82 %0.0 W/m²7.5 km/hNord-NW22.0 km/hNordosten1006.4 hPa0.0 mm0.0 mm/h
19.11.2018 - 22.35Uhr1.7 °C-1.0 °C82 %0.0 W/m²3.4 km/hOsten8.3 km/hOsten1006.4 hPa0.0 mm0.0 mm/h
19.11.2018 - 22.40Uhr1.7 °C-1.0 °C82 %0.0 W/m²3.0 km/hOsten12.2 km/hNordosten1006.4 hPa0.0 mm0.0 mm/h
19.11.2018 - 22.45Uhr1.7 °C-1.0 °C82 %0.0 W/m²4.1 km/hOst-NO8.3 km/hOst-NO1006.4 hPa0.0 mm0.0 mm/h
19.11.2018 - 22.50Uhr1.7 °C-1.0 °C82 %0.0 W/m²4.5 km/hNordosten8.3 km/hNordosten1006.4 hPa0.0 mm0.0 mm/h
19.11.2018 - 22.55Uhr1.7 °C-1.0 °C82 %0.0 W/m²6.6 km/hNord-NO14.0 km/hOsten1006.3 hPa0.0 mm0.0 mm/h
19.11.2018 - 23.00Uhr1.7 °C-1.0 °C82 %0.0 W/m²3.2 km/hOst-SO12.2 km/hOst-SO1006.2 hPa0.0 mm0.0 mm/h
19.11.2018 - 23.05Uhr1.7 °C-0.9 °C83 %0.0 W/m²3.5 km/hOsten8.3 km/hOsten1006.1 hPa0.0 mm0.0 mm/h
19.11.2018 - 23.10Uhr1.7 °C-1.0 °C82 %0.0 W/m²4.3 km/hNordosten12.2 km/hNorden1006.1 hPa0.0 mm0.0 mm/h
19.11.2018 - 23.15Uhr1.7 °C-1.0 °C82 %0.0 W/m²5.6 km/hNordosten16.2 km/hOst-NO1006.1 hPa0.0 mm0.0 mm/h
19.11.2018 - 23.20Uhr1.7 °C-1.0 °C82 %0.0 W/m²4.4 km/hOst-NO16.2 km/hSüdosten1006.0 hPa0.0 mm0.0 mm/h
19.11.2018 - 23.25Uhr1.7 °C-1.0 °C82 %0.0 W/m²6.0 km/hWest-NW16.2 km/hSüdosten1006.0 hPa0.0 mm0.0 mm/h